sensor_id;sensor_type;location;lat;lon;timestamp;temperature;humidity
13164;DHT22;6647;53.688;10.746;2023-05-23T00:00:48;17.90;99.90
13164;DHT22;6647;53.688;10.746;2023-05-23T00:01:51;17.90;99.90
13164;DHT22;6647;53.688;10.746;2023-05-23T00:02:54;17.90;99.90
13164;DHT22;6647;53.688;10.746;2023-05-23T00:03:54;17.90;99.90
13164;DHT22;6647;53.688;10.746;2023-05-23T00:04:55;17.90;99.90
13164;DHT22;6647;53.688;10.746;2023-05-23T00:05:58;17.90;99.90
13164;DHT22;6647;53.688;10.746;2023-05-23T00:06:58;17.90;99.90
13164;DHT22;6647;53.688;10.746;2023-05-23T00:08:02;18.00;99.90
13164;DHT22;6647;53.688;10.746;2023-05-23T00:09:03;18.00;99.90
13164;DHT22;6647;53.688;10.746;2023-05-23T00:10:04;18.00;99.90
13164;DHT22;6647;53.688;10.746;2023-05-23T00:11:05;17.90;99.90
13164;DHT22;6647;53.688;10.746;2023-05-23T00:12:06;18.00;99.90
13164;DHT22;6647;53.688;10.746;2023-05-23T00:13:07;18.00;99.90
13164;DHT22;6647;53.688;10.746;2023-05-23T00:14:12;17.90;99.90
13164;DHT22;6647;53.688;10.746;2023-05-23T00:15:13;18.00;99.90
13164;DHT22;6647;53.688;10.746;2023-05-23T00:16:14;17.90;99.90
13164;DHT22;6647;53.688;10.746;2023-05-23T00:17:15;18.00;99.90
13164;DHT22;6647;53.688;10.746;2023-05-23T00:18:17;18.00;99.90
13164;DHT22;6647;53.688;10.746;2023-05-23T00:19:18;18.00;99.90
13164;DHT22;6647;53.688;10.746;2023-05-23T00:20:18;18.00;99.90
13164;DHT22;6647;53.688;10.746;2023-05-23T00:21:20;18.00;99.90
13164;DHT22;6647;53.688;10.746;2023-05-23T00:22:21;18.00;99.90
13164;DHT22;6647;53.688;10.746;2023-05-23T00:23:22;18.00;99.90
13164;DHT22;6647;53.688;10.746;2023-05-23T00:24:24;18.00;99.90
13164;DHT22;6647;53.688;10.746;2023-05-23T00:25:25;18.00;99.90
13164;DHT22;6647;53.688;10.746;2023-05-23T00:26:33;18.00;99.90
13164;DHT22;6647;53.688;10.746;2023-05-23T00:27:35;18.00;99.90
13164;DHT22;6647;53.688;10.746;2023-05-23T00:28:36;18.00;99.90
13164;DHT22;6647;53.688;10.746;2023-05-23T00:29:37;18.00;99.90
13164;DHT22;6647;53.688;10.746;2023-05-23T00:30:38;18.00;99.90
13164;DHT22;6647;53.688;10.746;2023-05-23T00:31:39;18.00;99.90
13164;DHT22;6647;53.688;10.746;2023-05-23T00:32:39;18.00;99.90
13164;DHT22;6647;53.688;10.746;2023-05-23T00:33:40;18.00;99.90
13164;DHT22;6647;53.688;10.746;2023-05-23T00:34:41;17.90;99.90
13164;DHT22;6647;53.688;10.746;2023-05-23T00:35:41;18.00;99.90
13164;DHT22;6647;53.688;10.746;2023-05-23T00:36:42;17.90;99.90
13164;DHT22;6647;53.688;10.746;2023-05-23T00:37:43;17.90;99.90
13164;DHT22;6647;53.688;10.746;2023-05-23T00:38:44;17.90;99.90
13164;DHT22;6647;53.688;10.746;2023-05-23T00:39:45;17.90;99.90
13164;DHT22;6647;53.688;10.746;2023-05-23T00:40:46;17.90;99.90
13164;DHT22;6647;53.688;10.746;2023-05-23T00:41:48;17.90;99.90
13164;DHT22;6647;53.688;10.746;2023-05-23T00:42:49;17.90;99.90
13164;DHT22;6647;53.688;10.746;2023-05-23T00:43:50;17.90;99.90
13164;DHT22;6647;53.688;10.746;2023-05-23T00:44:51;17.90;99.90
13164;DHT22;6647;53.688;10.746;2023-05-23T00:45:52;17.90;99.90
13164;DHT22;6647;53.688;10.746;2023-05-23T00:46:55;17.90;99.90
13164;DHT22;6647;53.688;10.746;2023-05-23T00:47:57;17.90;99.90
13164;DHT22;6647;53.688;10.746;2023-05-23T00:48:59;17.90;99.90
13164;DHT22;6647;53.688;10.746;2023-05-23T00:50:00;17.90;99.90
13164;DHT22;6647;53.688;10.746;2023-05-23T00:51:01;17.90;99.90
13164;DHT22;6647;53.688;10.746;2023-05-23T00:52:02;17.80;99.90
13164;DHT22;6647;53.688;10.746;2023-05-23T00:53:03;17.80;99.90
13164;DHT22;6647;53.688;10.746;2023-05-23T00:54:04;17.80;99.90
13164;DHT22;6647;53.688;10.746;2023-05-23T00:55:05;17.80;99.90
13164;DHT22;6647;53.688;10.746;2023-05-23T00:56:08;17.80;99.90
13164;DHT22;6647;53.688;10.746;2023-05-23T00:57:09;17.80;99.90
13164;DHT22;6647;53.688;10.746;2023-05-23T00:58:10;17.80;99.90
13164;DHT22;6647;53.688;10.746;2023-05-23T00:59:12;17.80;99.90
13164;DHT22;6647;53.688;10.746;2023-05-23T01:00:14;17.80;99.90
13164;DHT22;6647;53.688;10.746;2023-05-23T01:01:16;17.80;99.90
13164;DHT22;6647;53.688;10.746;2023-05-23T01:02:18;17.80;99.90
13164;DHT22;6647;53.688;10.746;2023-05-23T01:03:20;17.80;99.90
13164;DHT22;6647;53.688;10.746;2023-05-23T01:04:23;17.80;99.90
13164;DHT22;6647;53.688;10.746;2023-05-23T01:05:25;17.80;99.90
13164;DHT22;6647;53.688;10.746;2023-05-23T01:06:26;17.80;99.90
13164;DHT22;6647;53.688;10.746;2023-05-23T01:07:30;17.80;99.90
13164;DHT22;6647;53.688;10.746;2023-05-23T01:08:31;17.70;99.90
13164;DHT22;6647;53.688;10.746;2023-05-23T01:09:32;17.70;99.90
13164;DHT22;6647;53.688;10.746;2023-05-23T01:10:32;17.80;99.90
13164;DHT22;6647;53.688;10.746;2023-05-23T01:11:39;17.80;99.90
13164;DHT22;6647;53.688;10.746;2023-05-23T01:14:18;17.80;99.90
13164;DHT22;6647;53.688;10.746;2023-05-23T01:15:25;17.80;99.90
13164;DHT22;6647;53.688;10.746;2023-05-23T01:16:47;17.70;99.90
13164;DHT22;6647;53.688;10.746;2023-05-23T01:18:01;17.70;99.90
13164;DHT22;6647;53.688;10.746;2023-05-23T01:21:47;17.70;99.90
13164;DHT22;6647;53.688;10.746;2023-05-23T01:27:54;17.60;99.90
13164;DHT22;6647;53.688;10.746;2023-05-23T01:29:20;17.60;99.90
13164;DHT22;6647;53.688;10.746;2023-05-23T01:30:23;17.60;99.90
13164;DHT22;6647;53.688;10.746;2023-05-23T01:31:26;17.50;99.90
13164;DHT22;6647;53.688;10.746;2023-05-23T01:32:29;17.50;99.90
13164;DHT22;6647;53.688;10.746;2023-05-23T01:33:31;17.50;99.90
13164;DHT22;6647;53.688;10.746;2023-05-23T01:34:35;17.50;99.90
13164;DHT22;6647;53.688;10.746;2023-05-23T01:35:36;17.50;99.90
13164;DHT22;6647;53.688;10.746;2023-05-23T01:36:40;17.40;99.90
13164;DHT22;6647;53.688;10.746;2023-05-23T01:37:43;17.40;99.90
13164;DHT22;6647;53.688;10.746;2023-05-23T01:38:44;17.50;99.90
13164;DHT22;6647;53.688;10.746;2023-05-23T01:39:45;17.40;99.90
13164;DHT22;6647;53.688;10.746;2023-05-23T01:40:45;17.40;99.90
13164;DHT22;6647;53.688;10.746;2023-05-23T01:41:47;17.50;99.90
13164;DHT22;6647;53.688;10.746;2023-05-23T01:42:48;17.40;99.90
13164;DHT22;6647;53.688;10.746;2023-05-23T01:43:49;17.40;99.90
13164;DHT22;6647;53.688;10.746;2023-05-23T01:44:50;17.40;99.90
13164;DHT22;6647;53.688;10.746;2023-05-23T01:45:52;17.40;99.90
13164;DHT22;6647;53.688;10.746;2023-05-23T01:46:54;17.40;99.90
13164;DHT22;6647;53.688;10.746;2023-05-23T01:47:56;17.40;99.90
13164;DHT22;6647;53.688;10.746;2023-05-23T01:48:58;17.40;99.90
13164;DHT22;6647;53.688;10.746;2023-05-23T01:50:00;17.30;99.90
13164;DHT22;6647;53.688;10.746;2023-05-23T01:51:01;17.30;99.90
13164;DHT22;6647;53.688;10.746;2023-05-23T01:52:03;17.30;99.90
13164;DHT22;6647;53.688;10.746;2023-05-23T01:53:05;17.30;99.90
13164;DHT22;6647;53.688;10.746;2023-05-23T01:54:06;17.30;99.90
13164;DHT22;6647;53.688;10.746;2023-05-23T01:55:08;17.30;99.90
13164;DHT22;6647;53.688;10.746;2023-05-23T01:56:09;17.30;99.90
13164;DHT22;6647;53.688;10.746;2023-05-23T01:57:10;17.20;99.90
13164;DHT22;6647;53.688;10.746;2023-05-23T01:58:11;17.20;99.90
13164;DHT22;6647;53.688;10.746;2023-05-23T01:59:12;17.20;99.90
13164;DHT22;6647;53.688;10.746;2023-05-23T02:00:13;17.20;99.90
13164;DHT22;6647;53.688;10.746;2023-05-23T02:01:15;17.20;99.90
13164;DHT22;6647;53.688;10.746;2023-05-23T02:02:16;17.20;99.90
13164;DHT22;6647;53.688;10.746;2023-05-23T02:03:17;17.10;99.90
13164;DHT22;6647;53.688;10.746;2023-05-23T02:04:18;17.10;99.90
13164;DHT22;6647;53.688;10.746;2023-05-23T02:05:18;17.00;99.90
13164;DHT22;6647;53.688;10.746;2023-05-23T02:06:19;17.10;99.90
13164;DHT22;6647;53.688;10.746;2023-05-23T02:07:20;17.10;99.90
13164;DHT22;6647;53.688;10.746;2023-05-23T02:08:22;17.00;99.90
13164;DHT22;6647;53.688;10.746;2023-05-23T02:09:23;17.00;99.90
13164;DHT22;6647;53.688;10.746;2023-05-23T02:10:24;17.00;99.90
13164;DHT22;6647;53.688;10.746;2023-05-23T02:11:24;17.00;99.90
13164;DHT22;6647;53.688;10.746;2023-05-23T02:12:26;17.00;99.90
13164;DHT22;6647;53.688;10.746;2023-05-23T02:13:26;17.10;99.90
13164;DHT22;6647;53.688;10.746;2023-05-23T02:14:27;17.10;99.90
13164;DHT22;6647;53.688;10.746;2023-05-23T02:15:28;17.10;99.90
13164;DHT22;6647;53.688;10.746;2023-05-23T02:16:28;17.10;99.90
13164;DHT22;6647;53.688;10.746;2023-05-23T02:17:29;17.10;99.90
13164;DHT22;6647;53.688;10.746;2023-05-23T02:18:30;17.00;99.90
13164;DHT22;6647;53.688;10.746;2023-05-23T02:19:30;17.00;99.90
13164;DHT22;6647;53.688;10.746;2023-05-23T02:20:31;17.10;99.90
13164;DHT22;6647;53.688;10.746;2023-05-23T02:21:31;17.00;99.90
13164;DHT22;6647;53.688;10.746;2023-05-23T02:22:32;17.10;99.90
13164;DHT22;6647;53.688;10.746;2023-05-23T02:23:33;17.10;99.90
13164;DHT22;6647;53.688;10.746;2023-05-23T02:24:33;17.10;99.90
13164;DHT22;6647;53.688;10.746;2023-05-23T02:25:34;17.00;99.90
13164;DHT22;6647;53.688;10.746;2023-05-23T02:26:35;17.10;99.90
13164;DHT22;6647;53.688;10.746;2023-05-23T02:27:36;17.00;99.90
13164;DHT22;6647;53.688;10.746;2023-05-23T02:28:37;17.10;99.90
13164;DHT22;6647;53.688;10.746;2023-05-23T02:29:37;17.00;99.90
13164;DHT22;6647;53.688;10.746;2023-05-23T02:30:38;17.10;99.90
13164;DHT22;6647;53.688;10.746;2023-05-23T02:31:39;17.00;99.90
13164;DHT22;6647;53.688;10.746;2023-05-23T02:32:39;17.00;99.90
13164;DHT22;6647;53.688;10.746;2023-05-23T02:33:40;17.00;99.90
13164;DHT22;6647;53.688;10.746;2023-05-23T02:34:41;17.00;99.90
13164;DHT22;6647;53.688;10.746;2023-05-23T02:35:42;17.00;99.90
13164;DHT22;6647;53.688;10.746;2023-05-23T02:36:42;17.00;99.90
13164;DHT22;6647;53.688;10.746;2023-05-23T02:37:43;17.00;99.90
13164;DHT22;6647;53.688;10.746;2023-05-23T02:38:44;17.00;99.90
13164;DHT22;6647;53.688;10.746;2023-05-23T02:39:44;17.00;99.90
13164;DHT22;6647;53.688;10.746;2023-05-23T02:40:45;17.00;99.90
13164;DHT22;6647;53.688;10.746;2023-05-23T02:41:46;17.00;99.90
13164;DHT22;6647;53.688;10.746;2023-05-23T02:42:46;17.00;99.90
13164;DHT22;6647;53.688;10.746;2023-05-23T02:43:47;17.00;99.90
13164;DHT22;6647;53.688;10.746;2023-05-23T02:44:48;17.00;99.90
13164;DHT22;6647;53.688;10.746;2023-05-23T02:45:48;17.00;99.90
13164;DHT22;6647;53.688;10.746;2023-05-23T02:46:49;17.00;99.90
13164;DHT22;6647;53.688;10.746;2023-05-23T02:47:50;17.00;99.90
13164;DHT22;6647;53.688;10.746;2023-05-23T02:48:50;17.00;99.90
13164;DHT22;6647;53.688;10.746;2023-05-23T02:49:51;17.00;99.90
13164;DHT22;6647;53.688;10.746;2023-05-23T02:50:52;17.00;99.90
13164;DHT22;6647;53.688;10.746;2023-05-23T02:51:52;17.00;99.90
13164;DHT22;6647;53.688;10.746;2023-05-23T02:52:53;17.00;99.90
13164;DHT22;6647;53.688;10.746;2023-05-23T02:53:53;17.00;99.90
13164;DHT22;6647;53.688;10.746;2023-05-23T02:54:54;17.00;99.90
13164;DHT22;6647;53.688;10.746;2023-05-23T02:55:55;17.00;99.90
13164;DHT22;6647;53.688;10.746;2023-05-23T02:56:55;17.00;99.90
13164;DHT22;6647;53.688;10.746;2023-05-23T02:57:56;17.00;99.90
13164;DHT22;6647;53.688;10.746;2023-05-23T02:58:58;17.00;99.90
13164;DHT22;6647;53.688;10.746;2023-05-23T02:59:59;17.00;99.90
13164;DHT22;6647;53.688;10.746;2023-05-23T03:01:00;17.00;99.90
13164;DHT22;6647;53.688;10.746;2023-05-23T03:02:01;17.00;99.90
13164;DHT22;6647;53.688;10.746;2023-05-23T03:03:02;17.00;99.90
13164;DHT22;6647;53.688;10.746;2023-05-23T03:04:02;17.00;99.90
13164;DHT22;6647;53.688;10.746;2023-05-23T03:05:04;17.10;99.90
13164;DHT22;6647;53.688;10.746;2023-05-23T03:06:05;17.00;99.90
13164;DHT22;6647;53.688;10.746;2023-05-23T03:07:06;17.00;99.90
13164;DHT22;6647;53.688;10.746;2023-05-23T03:08:07;17.00;99.90
13164;DHT22;6647;53.688;10.746;2023-05-23T03:09:08;17.00;99.90
13164;DHT22;6647;53.688;10.746;2023-05-23T03:10:09;17.00;99.90
13164;DHT22;6647;53.688;10.746;2023-05-23T03:11:10;17.00;99.90
13164;DHT22;6647;53.688;10.746;2023-05-23T03:12:11;17.00;99.90
13164;DHT22;6647;53.688;10.746;2023-05-23T03:13:11;17.00;99.90
13164;DHT22;6647;53.688;10.746;2023-05-23T03:14:12;17.00;99.90
13164;DHT22;6647;53.688;10.746;2023-05-23T03:15:13;17.00;99.90
13164;DHT22;6647;53.688;10.746;2023-05-23T03:16:14;17.00;99.90
13164;DHT22;6647;53.688;10.746;2023-05-23T03:17:14;17.10;99.90
13164;DHT22;6647;53.688;10.746;2023-05-23T03:18:15;17.00;99.90
13164;DHT22;6647;53.688;10.746;2023-05-23T03:19:16;17.00;99.90
13164;DHT22;6647;53.688;10.746;2023-05-23T03:20:17;17.00;99.90
13164;DHT22;6647;53.688;10.746;2023-05-23T03:21:17;17.00;99.90
13164;DHT22;6647;53.688;10.746;2023-05-23T03:22:18;17.10;99.90
13164;DHT22;6647;53.688;10.746;2023-05-23T03:23:19;17.00;99.90
13164;DHT22;6647;53.688;10.746;2023-05-23T03:24:19;17.00;99.90
13164;DHT22;6647;53.688;10.746;2023-05-23T03:25:20;17.00;99.90
13164;DHT22;6647;53.688;10.746;2023-05-23T03:26:21;17.00;99.90
13164;DHT22;6647;53.688;10.746;2023-05-23T03:27:22;17.00;99.90
13164;DHT22;6647;53.688;10.746;2023-05-23T03:28:22;17.00;99.90
13164;DHT22;6647;53.688;10.746;2023-05-23T03:29:23;17.00;99.90
13164;DHT22;6647;53.688;10.746;2023-05-23T03:30:24;17.00;99.90
13164;DHT22;6647;53.688;10.746;2023-05-23T03:31:25;17.10;99.90
13164;DHT22;6647;53.688;10.746;2023-05-23T03:32:25;17.10;99.90
13164;DHT22;6647;53.688;10.746;2023-05-23T03:33:26;17.00;99.90
13164;DHT22;6647;53.688;10.746;2023-05-23T03:34:26;17.10;99.90
13164;DHT22;6647;53.688;10.746;2023-05-23T03:35:27;17.00;99.90
13164;DHT22;6647;53.688;10.746;2023-05-23T03:36:28;17.10;99.90
13164;DHT22;6647;53.688;10.746;2023-05-23T03:37:28;17.10;99.90
13164;DHT22;6647;53.688;10.746;2023-05-23T03:38:29;17.10;99.90
13164;DHT22;6647;53.688;10.746;2023-05-23T03:39:30;17.10;99.90
13164;DHT22;6647;53.688;10.746;2023-05-23T03:40:31;17.10;99.90
13164;DHT22;6647;53.688;10.746;2023-05-23T03:41:31;17.10;99.90
13164;DHT22;6647;53.688;10.746;2023-05-23T03:42:32;17.10;99.90
13164;DHT22;6647;53.688;10.746;2023-05-23T03:43:33;17.10;99.90
13164;DHT22;6647;53.688;10.746;2023-05-23T03:44:33;17.10;99.90
13164;DHT22;6647;53.688;10.746;2023-05-23T03:45:34;17.10;99.90
13164;DHT22;6647;53.688;10.746;2023-05-23T03:46:35;17.10;99.90
13164;DHT22;6647;53.688;10.746;2023-05-23T03:47:35;17.10;99.90
13164;DHT22;6647;53.688;10.746;2023-05-23T03:48:36;17.10;99.90
13164;DHT22;6647;53.688;10.746;2023-05-23T03:49:37;17.10;99.90
13164;DHT22;6647;53.688;10.746;2023-05-23T03:50:39;17.10;99.90
13164;DHT22;6647;53.688;10.746;2023-05-23T03:51:39;17.10;99.90
13164;DHT22;6647;53.688;10.746;2023-05-23T03:52:40;17.10;99.90
13164;DHT22;6647;53.688;10.746;2023-05-23T03:53:41;17.10;99.90
13164;DHT22;6647;53.688;10.746;2023-05-23T03:54:41;17.10;99.90
13164;DHT22;6647;53.688;10.746;2023-05-23T03:55:42;17.10;99.90
13164;DHT22;6647;53.688;10.746;2023-05-23T03:56:43;17.10;99.90
13164;DHT22;6647;53.688;10.746;2023-05-23T03:57:43;17.10;99.90
13164;DHT22;6647;53.688;10.746;2023-05-23T03:58:44;17.10;99.90
13164;DHT22;6647;53.688;10.746;2023-05-23T03:59:45;17.10;99.90
13164;DHT22;6647;53.688;10.746;2023-05-23T04:00:46;17.10;99.90
13164;DHT22;6647;53.688;10.746;2023-05-23T04:01:46;17.10;99.90
13164;DHT22;6647;53.688;10.746;2023-05-23T04:02:47;17.10;99.90
13164;DHT22;6647;53.688;10.746;2023-05-23T04:03:50;17.20;99.90
13164;DHT22;6647;53.688;10.746;2023-05-23T04:04:51;17.10;99.90
13164;DHT22;6647;53.688;10.746;2023-05-23T04:05:53;17.10;99.90
13164;DHT22;6647;53.688;10.746;2023-05-23T04:06:53;17.10;99.90
13164;DHT22;6647;53.688;10.746;2023-05-23T04:07:55;17.10;99.90
13164;DHT22;6647;53.688;10.746;2023-05-23T04:08:56;17.10;99.90
13164;DHT22;6647;53.688;10.746;2023-05-23T04:09:57;17.10;99.90
13164;DHT22;6647;53.688;10.746;2023-05-23T04:10:58;17.10;99.90
13164;DHT22;6647;53.688;10.746;2023-05-23T04:11:58;17.20;99.90
13164;DHT22;6647;53.688;10.746;2023-05-23T04:12:59;17.10;99.90
13164;DHT22;6647;53.688;10.746;2023-05-23T04:13:59;17.10;99.90
13164;DHT22;6647;53.688;10.746;2023-05-23T04:15:02;17.10;99.90
13164;DHT22;6647;53.688;10.746;2023-05-23T04:16:03;17.10;99.90
13164;DHT22;6647;53.688;10.746;2023-05-23T04:17:05;17.10;99.90
13164;DHT22;6647;53.688;10.746;2023-05-23T04:18:08;17.10;99.90
13164;DHT22;6647;53.688;10.746;2023-05-23T04:19:09;17.10;99.90
13164;DHT22;6647;53.688;10.746;2023-05-23T04:20:10;17.20;99.90
13164;DHT22;6647;53.688;10.746;2023-05-23T04:21:11;17.10;99.90
13164;DHT22;6647;53.688;10.746;2023-05-23T04:22:11;17.10;99.90
13164;DHT22;6647;53.688;10.746;2023-05-23T04:23:12;17.20;99.90
13164;DHT22;6647;53.688;10.746;2023-05-23T04:24:13;17.20;99.90
13164;DHT22;6647;53.688;10.746;2023-05-23T04:25:14;17.20;99.90
13164;DHT22;6647;53.688;10.746;2023-05-23T04:26:17;17.20;99.90
13164;DHT22;6647;53.688;10.746;2023-05-23T04:27:18;17.20;99.90
13164;DHT22;6647;53.688;10.746;2023-05-23T04:28:19;17.20;99.90
13164;DHT22;6647;53.688;10.746;2023-05-23T04:29:19;17.20;99.90
13164;DHT22;6647;53.688;10.746;2023-05-23T04:30:20;17.20;99.90
13164;DHT22;6647;53.688;10.746;2023-05-23T04:31:21;17.20;99.90
13164;DHT22;6647;53.688;10.746;2023-05-23T04:32:23;17.20;99.90
13164;DHT22;6647;53.688;10.746;2023-05-23T04:33:24;17.20;99.90
13164;DHT22;6647;53.688;10.746;2023-05-23T04:34:25;17.20;99.90
13164;DHT22;6647;53.688;10.746;2023-05-23T04:35:26;17.20;99.90
13164;DHT22;6647;53.688;10.746;2023-05-23T04:36:29;17.20;99.90
13164;DHT22;6647;53.688;10.746;2023-05-23T04:37:30;17.20;99.90
13164;DHT22;6647;53.688;10.746;2023-05-23T04:38:32;17.10;99.90
13164;DHT22;6647;53.688;10.746;2023-05-23T04:39:33;17.10;99.90
13164;DHT22;6647;53.688;10.746;2023-05-23T04:40:33;17.10;99.90
13164;DHT22;6647;53.688;10.746;2023-05-23T04:41:34;17.10;99.90
13164;DHT22;6647;53.688;10.746;2023-05-23T04:42:35;17.10;99.90
13164;DHT22;6647;53.688;10.746;2023-05-23T04:43:36;17.10;99.90
13164;DHT22;6647;53.688;10.746;2023-05-23T04:44:41;17.20;99.90
13164;DHT22;6647;53.688;10.746;2023-05-23T04:45:42;17.10;99.90
13164;DHT22;6647;53.688;10.746;2023-05-23T04:46:43;17.10;99.90
13164;DHT22;6647;53.688;10.746;2023-05-23T04:47:45;17.10;99.90
13164;DHT22;6647;53.688;10.746;2023-05-23T04:48:45;17.20;99.90
13164;DHT22;6647;53.688;10.746;2023-05-23T04:49:47;17.10;99.90
13164;DHT22;6647;53.688;10.746;2023-05-23T04:50:48;17.10;99.90
13164;DHT22;6647;53.688;10.746;2023-05-23T04:51:51;17.10;99.90
13164;DHT22;6647;53.688;10.746;2023-05-23T04:52:51;17.10;99.90
13164;DHT22;6647;53.688;10.746;2023-05-23T04:53:52;17.10;99.90
13164;DHT22;6647;53.688;10.746;2023-05-23T04:54:53;17.10;99.90
13164;DHT22;6647;53.688;10.746;2023-05-23T04:55:53;17.10;99.90
13164;DHT22;6647;53.688;10.746;2023-05-23T04:56:54;17.10;99.90
13164;DHT22;6647;53.688;10.746;2023-05-23T04:57:54;17.10;99.90
13164;DHT22;6647;53.688;10.746;2023-05-23T04:58:55;17.10;99.90
13164;DHT22;6647;53.688;10.746;2023-05-23T04:59:56;17.10;99.90
13164;DHT22;6647;53.688;10.746;2023-05-23T05:00:57;17.10;99.90
13164;DHT22;6647;53.688;10.746;2023-05-23T05:01:58;17.10;99.90
13164;DHT22;6647;53.688;10.746;2023-05-23T05:02:58;17.10;99.90
13164;DHT22;6647;53.688;10.746;2023-05-23T05:03:59;17.10;99.90
13164;DHT22;6647;53.688;10.746;2023-05-23T05:05:00;17.20;99.90
13164;DHT22;6647;53.688;10.746;2023-05-23T05:06:01;17.20;99.90
13164;DHT22;6647;53.688;10.746;2023-05-23T05:07:02;17.10;99.90
13164;DHT22;6647;53.688;10.746;2023-05-23T05:08:03;17.10;99.90
13164;DHT22;6647;53.688;10.746;2023-05-23T05:09:03;17.10;99.90
13164;DHT22;6647;53.688;10.746;2023-05-23T05:10:04;17.10;99.90
13164;DHT22;6647;53.688;10.746;2023-05-23T05:11:05;17.20;99.90
13164;DHT22;6647;53.688;10.746;2023-05-23T05:12:06;17.20;99.90
13164;DHT22;6647;53.688;10.746;2023-05-23T05:13:07;17.20;99.90
13164;DHT22;6647;53.688;10.746;2023-05-23T05:14:07;17.20;99.90
13164;DHT22;6647;53.688;10.746;2023-05-23T05:15:08;17.20;99.90
13164;DHT22;6647;53.688;10.746;2023-05-23T05:16:09;17.20;99.90
13164;DHT22;6647;53.688;10.746;2023-05-23T05:17:12;17.20;99.90
13164;DHT22;6647;53.688;10.746;2023-05-23T05:18:13;17.20;99.90
13164;DHT22;6647;53.688;10.746;2023-05-23T05:19:14;17.20;99.90
13164;DHT22;6647;53.688;10.746;2023-05-23T05:20:15;17.20;99.90
13164;DHT22;6647;53.688;10.746;2023-05-23T05:21:16;17.20;99.90
13164;DHT22;6647;53.688;10.746;2023-05-23T05:22:17;17.20;99.90
13164;DHT22;6647;53.688;10.746;2023-05-23T05:23:18;17.20;99.90
13164;DHT22;6647;53.688;10.746;2023-05-23T05:24:18;17.20;99.90
13164;DHT22;6647;53.688;10.746;2023-05-23T05:25:22;17.20;99.90
13164;DHT22;6647;53.688;10.746;2023-05-23T05:26:23;17.20;99.90
13164;DHT22;6647;53.688;10.746;2023-05-23T05:27:24;17.20;99.90
13164;DHT22;6647;53.688;10.746;2023-05-23T05:28:25;17.20;99.90
13164;DHT22;6647;53.688;10.746;2023-05-23T05:29:25;17.20;99.90
13164;DHT22;6647;53.688;10.746;2023-05-23T05:30:26;17.20;99.90
13164;DHT22;6647;53.688;10.746;2023-05-23T05:31:27;17.10;1.00
13164;DHT22;6647;53.688;10.746;2023-05-23T05:32:29;17.10;1.00
13164;DHT22;6647;53.688;10.746;2023-05-23T05:33:32;17.10;1.00
13164;DHT22;6647;53.688;10.746;2023-05-23T05:34:35;17.10;1.00
13164;DHT22;6647;53.688;10.746;2023-05-23T05:35:37;17.10;1.00
13164;DHT22;6647;53.688;10.746;2023-05-23T05:36:38;17.10;1.00
13164;DHT22;6647;53.688;10.746;2023-05-23T05:37:45;17.10;1.00
13164;DHT22;6647;53.688;10.746;2023-05-23T05:38:46;17.00;1.00
13164;DHT22;6647;53.688;10.746;2023-05-23T05:39:46;17.00;1.00
13164;DHT22;6647;53.688;10.746;2023-05-23T05:40:47;16.90;1.00
13164;DHT22;6647;53.688;10.746;2023-05-23T05:41:47;16.90;1.00
13164;DHT22;6647;53.688;10.746;2023-05-23T05:42:48;16.90;1.00
13164;DHT22;6647;53.688;10.746;2023-05-23T05:43:49;16.90;1.00
13164;DHT22;6647;53.688;10.746;2023-05-23T05:44:50;16.80;1.00
13164;DHT22;6647;53.688;10.746;2023-05-23T05:45:50;16.80;1.00
13164;DHT22;6647;53.688;10.746;2023-05-23T05:46:51;16.60;1.00
13164;DHT22;6647;53.688;10.746;2023-05-23T05:47:52;16.50;1.00
13164;DHT22;6647;53.688;10.746;2023-05-23T05:48:52;16.40;1.00
13164;DHT22;6647;53.688;10.746;2023-05-23T05:49:53;16.40;1.00
13164;DHT22;6647;53.688;10.746;2023-05-23T05:50:53;16.40;1.00
13164;DHT22;6647;53.688;10.746;2023-05-23T05:51:54;16.30;1.00
13164;DHT22;6647;53.688;10.746;2023-05-23T05:52:55;16.30;1.00
13164;DHT22;6647;53.688;10.746;2023-05-23T05:53:55;16.20;1.00
13164;DHT22;6647;53.688;10.746;2023-05-23T05:54:56;16.20;1.00
13164;DHT22;6647;53.688;10.746;2023-05-23T05:55:57;16.20;1.00
13164;DHT22;6647;53.688;10.746;2023-05-23T05:56:57;16.20;1.00
13164;DHT22;6647;53.688;10.746;2023-05-23T05:57:58;16.20;1.00
13164;DHT22;6647;53.688;10.746;2023-05-23T05:58:59;16.10;1.00
13164;DHT22;6647;53.688;10.746;2023-05-23T05:59:59;16.20;1.00
13164;DHT22;6647;53.688;10.746;2023-05-23T06:01:00;16.10;1.00
13164;DHT22;6647;53.688;10.746;2023-05-23T06:02:01;16.10;1.00
13164;DHT22;6647;53.688;10.746;2023-05-23T06:03:01;16.10;1.00
13164;DHT22;6647;53.688;10.746;2023-05-23T06:04:02;16.10;1.00
13164;DHT22;6647;53.688;10.746;2023-05-23T06:05:03;16.00;1.00
13164;DHT22;6647;53.688;10.746;2023-05-23T06:06:04;16.00;1.00
13164;DHT22;6647;53.688;10.746;2023-05-23T06:07:04;16.00;1.00
13164;DHT22;6647;53.688;10.746;2023-05-23T06:08:05;15.90;1.00
13164;DHT22;6647;53.688;10.746;2023-05-23T06:09:06;15.90;1.00
13164;DHT22;6647;53.688;10.746;2023-05-23T06:10:07;15.90;1.00
13164;DHT22;6647;53.688;10.746;2023-05-23T06:11:08;15.90;1.00
13164;DHT22;6647;53.688;10.746;2023-05-23T06:12:09;15.90;1.00
13164;DHT22;6647;53.688;10.746;2023-05-23T06:13:10;15.80;1.00
13164;DHT22;6647;53.688;10.746;2023-05-23T06:14:10;15.90;1.00
13164;DHT22;6647;53.688;10.746;2023-05-23T06:15:11;15.90;1.00
13164;DHT22;6647;53.688;10.746;2023-05-23T06:16:15;15.80;1.00
13164;DHT22;6647;53.688;10.746;2023-05-23T06:17:16;15.70;1.00
13164;DHT22;6647;53.688;10.746;2023-05-23T06:18:17;15.70;1.00
13164;DHT22;6647;53.688;10.746;2023-05-23T06:19:17;15.70;1.00
13164;DHT22;6647;53.688;10.746;2023-05-23T06:20:18;15.70;1.00
13164;DHT22;6647;53.688;10.746;2023-05-23T06:21:18;15.70;1.00
13164;DHT22;6647;53.688;10.746;2023-05-23T06:22:19;15.60;1.00
13164;DHT22;6647;53.688;10.746;2023-05-23T06:23:20;15.60;1.00
13164;DHT22;6647;53.688;10.746;2023-05-23T06:24:20;15.60;1.00
13164;DHT22;6647;53.688;10.746;2023-05-23T06:25:21;15.60;1.00
13164;DHT22;6647;53.688;10.746;2023-05-23T06:26:22;15.60;1.00
13164;DHT22;6647;53.688;10.746;2023-05-23T06:27:22;15.60;1.00
13164;DHT22;6647;53.688;10.746;2023-05-23T06:28:23;15.60;1.00
13164;DHT22;6647;53.688;10.746;2023-05-23T06:29:23;15.70;1.00
13164;DHT22;6647;53.688;10.746;2023-05-23T06:30:24;15.60;1.00
13164;DHT22;6647;53.688;10.746;2023-05-23T06:31:25;15.60;1.00
13164;DHT22;6647;53.688;10.746;2023-05-23T06:32:25;15.60;1.00
13164;DHT22;6647;53.688;10.746;2023-05-23T06:33:27;15.50;1.00
13164;DHT22;6647;53.688;10.746;2023-05-23T06:34:27;15.50;1.00
13164;DHT22;6647;53.688;10.746;2023-05-23T06:35:28;15.40;1.00
13164;DHT22;6647;53.688;10.746;2023-05-23T06:36:29;15.40;1.00
13164;DHT22;6647;53.688;10.746;2023-05-23T06:37:31;15.40;1.00